sensor_id;sensor_type;location;lat;lon;timestamp;pressure;altitude;pressure_sealevel;temperature;humidity
16525;BME280;8375;33.594;-117.718;2024-02-04T00:00:43;100236.84;;;14.94;61.52
16525;BME280;8375;33.594;-117.718;2024-02-04T00:03:14;100238.22;;;14.89;61.66
16525;BME280;8375;33.594;-117.718;2024-02-04T00:05:42;100245.69;;;14.84;63.57
16525;BME280;8375;33.594;-117.718;2024-02-04T00:08:12;100242.00;;;14.76;62.08
16525;BME280;8375;33.594;-117.718;2024-02-04T00:10:43;100243.41;;;14.71;65.16
16525;BME280;8375;33.594;-117.718;2024-02-04T00:13:14;100231.03;;;14.63;64.05
16525;BME280;8375;33.594;-117.718;2024-02-04T00:15:43;100240.50;;;14.64;64.25
16525;BME280;8375;33.594;-117.718;2024-02-04T00:18:13;100241.75;;;14.60;64.69
16525;BME280;8375;33.594;-117.718;2024-02-04T00:20:42;100241.66;;;14.51;64.90
16525;BME280;8375;33.594;-117.718;2024-02-04T00:23:11;100243.34;;;14.43;63.85
16525;BME280;8375;33.594;-117.718;2024-02-04T00:25:39;100241.69;;;14.42;64.63
16525;BME280;8375;33.594;-117.718;2024-02-04T00:28:09;100249.94;;;14.37;64.08
16525;BME280;8375;33.594;-117.718;2024-02-04T00:30:38;100237.63;;;14.29;63.27
16525;BME280;8375;33.594;-117.718;2024-02-04T00:33:07;100242.00;;;14.29;64.22
16525;BME280;8375;33.594;-117.718;2024-02-04T00:35:37;100239.38;;;14.29;64.70
16525;BME280;8375;33.594;-117.718;2024-02-04T00:38:06;100242.16;;;14.27;66.04
16525;BME280;8375;33.594;-117.718;2024-02-04T00:40:35;100235.41;;;14.25;66.69
16525;BME280;8375;33.594;-117.718;2024-02-04T00:43:03;100225.25;;;14.21;67.99
16525;BME280;8375;33.594;-117.718;2024-02-04T00:45:32;100226.94;;;14.13;66.07
16525;BME280;8375;33.594;-117.718;2024-02-04T00:48:01;100212.50;;;14.08;65.58
16525;BME280;8375;33.594;-117.718;2024-02-04T00:50:29;100219.34;;;14.19;70.22
16525;BME280;8375;33.594;-117.718;2024-02-04T00:52:59;100213.00;;;14.32;70.41
16525;BME280;8375;33.594;-117.718;2024-02-04T00:55:28;100212.56;;;14.36;71.11
16525;BME280;8375;33.594;-117.718;2024-02-04T00:57:57;100213.25;;;14.38;69.36
16525;BME280;8375;33.594;-117.718;2024-02-04T01:00:27;100222.16;;;14.46;73.17
16525;BME280;8375;33.594;-117.718;2024-02-04T01:02:56;100226.16;;;14.40;66.60
16525;BME280;8375;33.594;-117.718;2024-02-04T01:05:25;100227.13;;;14.39;69.74
16525;BME280;8375;33.594;-117.718;2024-02-04T01:07:53;100218.31;;;14.40;70.01
16525;BME280;8375;33.594;-117.718;2024-02-04T01:10:24;100218.72;;;14.45;71.04
16525;BME280;8375;33.594;-117.718;2024-02-04T01:12:52;100224.91;;;14.44;69.34
16525;BME280;8375;33.594;-117.718;2024-02-04T01:15:21;100225.91;;;14.33;68.58
16525;BME280;8375;33.594;-117.718;2024-02-04T01:17:49;100232.66;;;14.26;69.45
16525;BME280;8375;33.594;-117.718;2024-02-04T01:20:19;100235.00;;;14.19;69.76
16525;BME280;8375;33.594;-117.718;2024-02-04T01:22:47;100239.97;;;14.13;71.08
16525;BME280;8375;33.594;-117.718;2024-02-04T01:25:16;100246.03;;;14.03;72.99
16525;BME280;8375;33.594;-117.718;2024-02-04T01:27:46;100251.13;;;13.95;70.49
16525;BME280;8375;33.594;-117.718;2024-02-04T01:30:15;100260.06;;;13.92;72.82
16525;BME280;8375;33.594;-117.718;2024-02-04T01:32:43;100267.19;;;13.90;73.77
16525;BME280;8375;33.594;-117.718;2024-02-04T01:35:12;100263.91;;;13.88;75.86
16525;BME280;8375;33.594;-117.718;2024-02-04T01:37:42;100261.03;;;13.82;71.82
16525;BME280;8375;33.594;-117.718;2024-02-04T01:40:15;100267.59;;;13.76;71.54
16525;BME280;8375;33.594;-117.718;2024-02-04T01:42:45;100263.34;;;13.75;73.21
16525;BME280;8375;33.594;-117.718;2024-02-04T01:45:13;100266.22;;;13.72;74.70
16525;BME280;8375;33.594;-117.718;2024-02-04T01:47:42;100268.56;;;13.65;73.68
16525;BME280;8375;33.594;-117.718;2024-02-04T01:50:12;100275.03;;;13.61;74.25
16525;BME280;8375;33.594;-117.718;2024-02-04T01:52:42;100283.94;;;13.58;73.18
16525;BME280;8375;33.594;-117.718;2024-02-04T01:55:15;100270.34;;;13.55;73.83
16525;BME280;8375;33.594;-117.718;2024-02-04T01:57:48;100261.69;;;13.54;72.59
16525;BME280;8375;33.594;-117.718;2024-02-04T02:00:17;100265.13;;;13.55;76.66
16525;BME280;8375;33.594;-117.718;2024-02-04T02:02:47;100277.50;;;13.53;75.48
16525;BME280;8375;33.594;-117.718;2024-02-04T02:05:16;100277.59;;;13.51;74.85
16525;BME280;8375;33.594;-117.718;2024-02-04T02:07:45;100276.22;;;13.47;74.36
16525;BME280;8375;33.594;-117.718;2024-02-04T02:10:17;100278.41;;;13.42;72.82
16525;BME280;8375;33.594;-117.718;2024-02-04T02:12:52;100283.75;;;13.40;75.93
16525;BME280;8375;33.594;-117.718;2024-02-04T02:15:25;100283.88;;;13.39;76.51
16525;BME280;8375;33.594;-117.718;2024-02-04T02:17:57;100285.25;;;13.33;75.18
16525;BME280;8375;33.594;-117.718;2024-02-04T02:20:32;100286.31;;;13.30;77.60
16525;BME280;8375;33.594;-117.718;2024-02-04T02:23:09;100286.75;;;13.26;76.79
16525;BME280;8375;33.594;-117.718;2024-02-04T02:25:41;100280.81;;;13.24;78.54
16525;BME280;8375;33.594;-117.718;2024-02-04T02:28:10;100279.16;;;13.23;77.15
16525;BME280;8375;33.594;-117.718;2024-02-04T02:30:39;100275.03;;;13.20;78.01
16525;BME280;8375;33.594;-117.718;2024-02-04T02:33:08;100274.22;;;13.19;76.89
16525;BME280;8375;33.594;-117.718;2024-02-04T02:35:36;100270.91;;;13.17;76.61
16525;BME280;8375;33.594;-117.718;2024-02-04T02:38:08;100278.63;;;13.19;78.09
16525;BME280;8375;33.594;-117.718;2024-02-04T02:40:46;100270.78;;;13.19;76.15
16525;BME280;8375;33.594;-117.718;2024-02-04T02:43:16;100274.63;;;13.15;75.64
16525;BME280;8375;33.594;-117.718;2024-02-04T02:45:45;100283.25;;;13.15;75.38
16525;BME280;8375;33.594;-117.718;2024-02-04T02:48:14;100281.59;;;13.14;77.55
16525;BME280;8375;33.594;-117.718;2024-02-04T02:50:48;100281.75;;;13.13;78.73
16525;BME280;8375;33.594;-117.718;2024-02-04T02:53:17;100289.56;;;13.13;80.07
16525;BME280;8375;33.594;-117.718;2024-02-04T02:55:48;100295.59;;;13.13;79.91
16525;BME280;8375;33.594;-117.718;2024-02-04T02:58:17;100306.97;;;13.12;78.18
16525;BME280;8375;33.594;-117.718;2024-02-04T03:00:45;100310.69;;;13.10;78.34
16525;BME280;8375;33.594;-117.718;2024-02-04T03:03:14;100306.69;;;13.05;77.83
16525;BME280;8375;33.594;-117.718;2024-02-04T03:05:42;100307.66;;;13.04;78.23
16525;BME280;8375;33.594;-117.718;2024-02-04T03:08:11;100311.22;;;13.03;79.15
16525;BME280;8375;33.594;-117.718;2024-02-04T03:10:40;100302.44;;;13.04;81.74
16525;BME280;8375;33.594;-117.718;2024-02-04T03:13:10;100302.44;;;13.04;81.20
16525;BME280;8375;33.594;-117.718;2024-02-04T03:15:39;100299.25;;;13.01;82.69
16525;BME280;8375;33.594;-117.718;2024-02-04T03:18:09;100304.72;;;12.98;81.30
16525;BME280;8375;33.594;-117.718;2024-02-04T03:20:37;100299.66;;;12.96;81.15
16525;BME280;8375;33.594;-117.718;2024-02-04T03:23:06;100309.25;;;12.96;81.25
16525;BME280;8375;33.594;-117.718;2024-02-04T03:25:35;100317.22;;;12.94;81.79
16525;BME280;8375;33.594;-117.718;2024-02-04T03:28:04;100313.75;;;12.94;82.71
16525;BME280;8375;33.594;-117.718;2024-02-04T03:30:34;100313.06;;;12.91;82.69
16525;BME280;8375;33.594;-117.718;2024-02-04T03:33:03;100317.59;;;12.89;82.69
16525;BME280;8375;33.594;-117.718;2024-02-04T03:35:32;100309.31;;;12.84;80.77
16525;BME280;8375;33.594;-117.718;2024-02-04T03:38:03;100312.19;;;12.81;81.72
16525;BME280;8375;33.594;-117.718;2024-02-04T03:40:32;100317.41;;;12.81;82.16
16525;BME280;8375;33.594;-117.718;2024-02-04T03:43:01;100331.13;;;12.83;84.14
16525;BME280;8375;33.594;-117.718;2024-02-04T03:45:30;100341.69;;;12.82;83.57
16525;BME280;8375;33.594;-117.718;2024-02-04T03:48:00;100345.00;;;12.84;83.23
16525;BME280;8375;33.594;-117.718;2024-02-04T03:50:28;100330.06;;;12.86;84.52
16525;BME280;8375;33.594;-117.718;2024-02-04T03:52:57;100334.56;;;12.84;83.15
16525;BME280;8375;33.594;-117.718;2024-02-04T03:55:26;100338.81;;;12.85;87.29
16525;BME280;8375;33.594;-117.718;2024-02-04T03:57:55;100347.59;;;12.84;87.53
16525;BME280;8375;33.594;-117.718;2024-02-04T04:00:24;100355.66;;;12.81;86.94
16525;BME280;8375;33.594;-117.718;2024-02-04T04:02:53;100360.28;;;12.77;86.30
16525;BME280;8375;33.594;-117.718;2024-02-04T04:05:23;100350.81;;;12.76;86.16
16525;BME280;8375;33.594;-117.718;2024-02-04T04:07:52;100358.66;;;12.76;86.54
16525;BME280;8375;33.594;-117.718;2024-02-04T04:10:21;100367.31;;;12.76;88.50
16525;BME280;8375;33.594;-117.718;2024-02-04T04:12:49;100362.19;;;12.75;88.78
16525;BME280;8375;33.594;-117.718;2024-02-04T04:15:18;100364.94;;;12.73;89.87
16525;BME280;8375;33.594;-117.718;2024-02-04T04:17:47;100372.75;;;12.73;91.07
16525;BME280;8375;33.594;-117.718;2024-02-04T04:20:15;100373.72;;;12.72;92.17
16525;BME280;8375;33.594;-117.718;2024-02-04T04:22:46;100371.22;;;12.71;93.36
16525;BME280;8375;33.594;-117.718;2024-02-04T04:25:14;100379.19;;;12.69;93.03
16525;BME280;8375;33.594;-117.718;2024-02-04T04:27:44;100383.69;;;12.67;94.15
16525;BME280;8375;33.594;-117.718;2024-02-04T04:30:13;100385.84;;;12.62;95.29
16525;BME280;8375;33.594;-117.718;2024-02-04T04:32:41;100387.75;;;12.60;96.46
16525;BME280;8375;33.594;-117.718;2024-02-04T04:35:12;100401.72;;;12.59;98.20
16525;BME280;8375;33.594;-117.718;2024-02-04T04:37:41;100406.94;;;12.59;98.77
16525;BME280;8375;33.594;-117.718;2024-02-04T04:40:12;100400.88;;;12.58;100.00
16525;BME280;8375;33.594;-117.718;2024-02-04T04:42:41;100408.84;;;12.57;100.00
16525;BME280;8375;33.594;-117.718;2024-02-04T04:45:10;100413.59;;;12.52;100.00
16525;BME280;8375;33.594;-117.718;2024-02-04T04:47:40;100416.56;;;12.47;100.00
16525;BME280;8375;33.594;-117.718;2024-02-04T04:50:09;100415.75;;;12.46;100.00
16525;BME280;8375;33.594;-117.718;2024-02-04T04:52:38;100417.66;;;12.44;100.00
16525;BME280;8375;33.594;-117.718;2024-02-04T04:55:07;100406.41;;;12.44;100.00
16525;BME280;8375;33.594;-117.718;2024-02-04T04:57:37;100408.19;;;12.43;100.00
16525;BME280;8375;33.594;-117.718;2024-02-04T05:00:06;100404.63;;;12.44;100.00
16525;BME280;8375;33.594;-117.718;2024-02-04T05:02:37;100409.00;;;12.44;100.00
16525;BME280;8375;33.594;-117.718;2024-02-04T05:05:06;100396.13;;;12.42;100.00
16525;BME280;8375;33.594;-117.718;2024-02-04T05:07:35;100393.78;;;12.39;100.00
16525;BME280;8375;33.594;-117.718;2024-02-04T05:10:04;100402.28;;;12.41;100.00
16525;BME280;8375;33.594;-117.718;2024-02-04T05:12:33;100399.53;;;12.43;100.00
16525;BME280;8375;33.594;-117.718;2024-02-04T05:15:04;100407.34;;;12.43;100.00
16525;BME280;8375;33.594;-117.718;2024-02-04T05:17:34;100413.41;;;12.43;100.00
16525;BME280;8375;33.594;-117.718;2024-02-04T05:20:02;100413.50;;;12.42;100.00
16525;BME280;8375;33.594;-117.718;2024-02-04T05:22:31;100416.13;;;12.42;100.00
16525;BME280;8375;33.594;-117.718;2024-02-04T05:25:00;100417.31;;;12.38;100.00
16525;BME280;8375;33.594;-117.718;2024-02-04T05:27:29;100417.31;;;12.38;100.00
16525;BME280;8375;33.594;-117.718;2024-02-04T05:29:58;100426.91;;;12.37;100.00
16525;BME280;8375;33.594;-117.718;2024-02-04T05:32:28;100435.69;;;12.36;100.00
16525;BME280;8375;33.594;-117.718;2024-02-04T05:34:56;100434.97;;;12.34;100.00
16525;BME280;8375;33.594;-117.718;2024-02-04T05:37:25;100434.97;;;12.34;100.00
16525;BME280;8375;33.594;-117.718;2024-02-04T05:39:54;100437.69;;;12.32;100.00
16525;BME280;8375;33.594;-117.718;2024-02-04T05:42:22;100442.06;;;12.32;100.00
16525;BME280;8375;33.594;-117.718;2024-02-04T05:44:51;100444.78;;;12.30;100.00
16525;BME280;8375;33.594;-117.718;2024-02-04T05:47:20;100441.38;;;12.30;100.00
16525;BME280;8375;33.594;-117.718;2024-02-04T05:49:50;100450.13;;;12.29;100.00
16525;BME280;8375;33.594;-117.718;2024-02-04T05:52:19;100443.13;;;12.29;100.00
16525;BME280;8375;33.594;-117.718;2024-02-04T05:54:47;100451.78;;;12.30;100.00
16525;BME280;8375;33.594;-117.718;2024-02-04T05:57:16;100455.34;;;12.29;100.00
16525;BME280;8375;33.594;-117.718;2024-02-04T05:59:46;100452.75;;;12.29;100.00
16525;BME280;8375;33.594;-117.718;2024-02-04T06:02:15;100445.97;;;12.26;100.00
16525;BME280;8375;33.594;-117.718;2024-02-04T06:04:44;100445.28;;;12.24;100.00
16525;BME280;8375;33.594;-117.718;2024-02-04T06:07:16;100438.41;;;12.23;100.00
16525;BME280;8375;33.594;-117.718;2024-02-04T06:09:45;100424.47;;;12.24;100.00
16525;BME280;8375;33.594;-117.718;2024-02-04T06:12:13;100417.59;;;12.23;100.00
16525;BME280;8375;33.594;-117.718;2024-02-04T06:14:42;100422.81;;;12.23;100.00
16525;BME280;8375;33.594;-117.718;2024-02-04T06:17:10;100435.97;;;12.22;100.00
16525;BME280;8375;33.594;-117.718;2024-02-04T06:19:39;100427.44;;;12.20;100.00
16525;BME280;8375;33.594;-117.718;2024-02-04T06:22:08;100438.81;;;12.18;100.00
16525;BME280;8375;33.594;-117.718;2024-02-04T06:24:38;100438.09;;;12.16;100.00
16525;BME280;8375;33.594;-117.718;2024-02-04T06:27:07;100435.59;;;12.15;100.00
16525;BME280;8375;33.594;-117.718;2024-02-04T06:29:36;100447.22;;;12.11;100.00
16525;BME280;8375;33.594;-117.718;2024-02-04T06:32:06;100444.75;;;12.09;100.00
16525;BME280;8375;33.594;-117.718;2024-02-04T06:34:36;100445.44;;;12.11;100.00
16525;BME280;8375;33.594;-117.718;2024-02-04T07:05:50;100434.66;;;12.16;100.00
16525;BME280;8375;33.594;-117.718;2024-02-04T07:08:19;100427.94;;;12.13;100.00
16525;BME280;8375;33.594;-117.718;2024-02-04T07:10:48;100418.59;;;12.11;100.00
16525;BME280;8375;33.594;-117.718;2024-02-04T07:13:17;100428.19;;;12.10;100.00
16525;BME280;8375;33.594;-117.718;2024-02-04T07:15:46;100429.94;;;12.10;100.00
16525;BME280;8375;33.594;-117.718;2024-02-04T07:18:15;100425.69;;;12.09;100.00
16525;BME280;8375;33.594;-117.718;2024-02-04T07:20:48;100418.25;;;12.04;100.00
16525;BME280;8375;33.594;-117.718;2024-02-04T07:23:18;100407.25;;;12.00;100.00
16525;BME280;8375;33.594;-117.718;2024-02-04T07:25:47;100384.69;;;11.89;100.00
16525;BME280;8375;33.594;-117.718;2024-02-04T07:28:16;100366.03;;;11.84;100.00
16525;BME280;8375;33.594;-117.718;2024-02-04T07:30:45;100358.91;;;11.86;100.00
16525;BME280;8375;33.594;-117.718;2024-02-04T07:33:13;100348.63;;;11.85;100.00
16525;BME280;8375;33.594;-117.718;2024-02-04T07:35:42;100349.94;;;11.79;100.00
16525;BME280;8375;33.594;-117.718;2024-02-04T07:38:11;100348.44;;;11.65;100.00
16525;BME280;8375;33.594;-117.718;2024-02-04T07:40:41;100343.63;;;11.61;100.00
16525;BME280;8375;33.594;-117.718;2024-02-04T07:43:10;100349.16;;;11.56;100.00
16525;BME280;8375;33.594;-117.718;2024-02-04T07:45:39;100343.00;;;11.57;100.00
16525;BME280;8375;33.594;-117.718;2024-02-04T07:48:08;100348.09;;;11.58;100.00
16525;BME280;8375;33.594;-117.718;2024-02-04T07:50:37;100357.59;;;11.37;100.00
16525;BME280;8375;33.594;-117.718;2024-02-04T07:53:06;100350.97;;;11.33;100.00
16525;BME280;8375;33.594;-117.718;2024-02-04T07:55:35;100347.53;;;11.43;100.00
16525;BME280;8375;33.594;-117.718;2024-02-04T07:58:05;100329.22;;;11.45;100.00
16525;BME280;8375;33.594;-117.718;2024-02-04T08:00:34;100306.78;;;11.44;100.00
16525;BME280;8375;33.594;-117.718;2024-02-04T08:03:02;100292.16;;;11.20;100.00
16525;BME280;8375;33.594;-117.718;2024-02-04T08:05:31;100270.44;;;11.10;100.00
16525;BME280;8375;33.594;-117.718;2024-02-04T08:08:01;100241.75;;;11.00;100.00
16525;BME280;8375;33.594;-117.718;2024-02-04T08:10:30;100226.53;;;10.95;100.00
16525;BME280;8375;33.594;-117.718;2024-02-04T08:12:59;100218.97;;;10.92;100.00
16525;BME280;8375;33.594;-117.718;2024-02-04T08:15:29;100222.28;;;10.94;100.00
16525;BME280;8375;33.594;-117.718;2024-02-04T08:17:57;100233.63;;;10.93;100.00
16525;BME280;8375;33.594;-117.718;2024-02-04T08:20:26;100259.13;;;10.88;100.00
16525;BME280;8375;33.594;-117.718;2024-02-04T08:22:55;100264.06;;;10.91;100.00
16525;BME280;8375;33.594;-117.718;2024-02-04T08:25:23;100275.66;;;10.98;100.00
16525;BME280;8375;33.594;-117.718;2024-02-04T08:27:52;100275.41;;;11.02;100.00
16525;BME280;8375;33.594;-117.718;2024-02-04T08:30:21;100283.66;;;11.07;100.00
16525;BME280;8375;33.594;-117.718;2024-02-04T08:32:51;100281.78;;;11.09;100.00
16525;BME280;8375;33.594;-117.718;2024-02-04T08:35:20;100284.38;;;11.09;100.00
16525;BME280;8375;33.594;-117.718;2024-02-04T08:37:48;100286.13;;;11.08;100.00
16525;BME280;8375;33.594;-117.718;2024-02-04T08:40:17;100288.63;;;11.10;100.00
16525;BME280;8375;33.594;-117.718;2024-02-04T08:42:45;100285.19;;;11.09;100.00
16525;BME280;8375;33.594;-117.718;2024-02-04T08:45:14;100286.84;;;11.10;100.00
16525;BME280;8375;33.594;-117.718;2024-02-04T08:47:43;100287.53;;;11.12;100.00
16525;BME280;8375;33.594;-117.718;2024-02-04T08:50:13;100273.03;;;11.10;100.00
16525;BME280;8375;33.594;-117.718;2024-02-04T08:52:42;100264.88;;;11.14;100.00
16525;BME280;8375;33.594;-117.718;2024-02-04T08:55:10;100265.00;;;11.13;100.00
16525;BME280;8375;33.594;-117.718;2024-02-04T08:57:39;100265.56;;;11.17;100.00
16525;BME280;8375;33.594;-117.718;2024-02-04T09:00:09;100275.25;;;11.14;100.00
16525;BME280;8375;33.594;-117.718;2024-02-04T09:02:38;100283.91;;;11.15;100.00
16525;BME280;8375;33.594;-117.718;2024-02-04T09:05:07;100284.84;;;11.14;100.00
16525;BME280;8375;33.594;-117.718;2024-02-04T09:07:38;100280.22;;;11.06;100.00
16525;BME280;8375;33.594;-117.718;2024-02-04T09:10:07;100281.31;;;11.04;100.00
16525;BME280;8375;33.594;-117.718;2024-02-04T09:12:36;100282.81;;;11.06;100.00
16525;BME280;8375;33.594;-117.718;2024-02-04T09:15:05;100274.09;;;11.07;100.00
16525;BME280;8375;33.594;-117.718;2024-02-04T09:17:34;100254.38;;;11.05;100.00
16525;BME280;8375;33.594;-117.718;2024-02-04T09:20:04;100266.28;;;11.07;100.00
16525;BME280;8375;33.594;-117.718;2024-02-04T09:22:34;100250.72;;;11.07;100.00
16525;BME280;8375;33.594;-117.718;2024-02-04T09:25:05;100257.69;;;11.07;100.00
16525;BME280;8375;33.594;-117.718;2024-02-04T09:27:33;100267.38;;;11.05;100.00
16525;BME280;8375;33.594;-117.718;2024-02-04T09:30:03;100265.00;;;11.02;100.00
16525;BME280;8375;33.594;-117.718;2024-02-04T09:32:32;100263.13;;;11.04;100.00
16525;BME280;8375;33.594;-117.718;2024-02-04T09:35:01;100253.53;;;11.04;100.00
16525;BME280;8375;33.594;-117.718;2024-02-04T09:37:30;100255.34;;;11.04;100.00
16525;BME280;8375;33.594;-117.718;2024-02-04T09:39:59;100261.56;;;11.01;100.00
16525;BME280;8375;33.594;-117.718;2024-02-04T09:42:29;100253.22;;;10.97;100.00
16525;BME280;8375;33.594;-117.718;2024-02-04T09:44:58;100253.22;;;10.97;100.00
16525;BME280;8375;33.594;-117.718;2024-02-04T09:47:27;100255.81;;;10.97;100.00
16525;BME280;8375;33.594;-117.718;2024-02-04T09:49:56;100248.03;;;10.97;100.00
16525;BME280;8375;33.594;-117.718;2024-02-04T09:52:28;100241.41;;;10.93;100.00
16525;BME280;8375;33.594;-117.718;2024-02-04T09:55:00;100241.16;;;10.96;100.00
16525;BME280;8375;33.594;-117.718;2024-02-04T09:57:31;100240.34;;;10.96;100.00
16525;BME280;8375;33.594;-117.718;2024-02-04T10:00:04;100224.75;;;10.96;100.00
16525;BME280;8375;33.594;-117.718;2024-02-04T10:02:33;100228.28;;;10.95;100.00
16525;BME280;8375;33.594;-117.718;2024-02-04T10:05:01;100231.97;;;10.92;100.00
16525;BME280;8375;33.594;-117.718;2024-02-04T10:07:30;100225.94;;;10.92;100.00
16525;BME280;8375;33.594;-117.718;2024-02-04T10:09:59;100218.97;;;10.92;100.00
16525;BME280;8375;33.594;-117.718;2024-02-04T10:12:28;100220.03;;;10.90;100.00
16525;BME280;8375;33.594;-117.718;2024-02-04T10:14:59;100215.91;;;10.87;100.00
16525;BME280;8375;33.594;-117.718;2024-02-04T10:17:29;100215.06;;;10.86;100.00
16525;BME280;8375;33.594;-117.718;2024-02-04T10:19:59;100224.88;;;10.83;100.00
16525;BME280;8375;33.594;-117.718;2024-02-04T10:22:29;100217.09;;;10.83;100.00
16525;BME280;8375;33.594;-117.718;2024-02-04T10:25:06;100205.06;;;10.82;100.00
16525;BME280;8375;33.594;-117.718;2024-02-04T10:27:35;100215.44;;;10.82;100.00
16525;BME280;8375;33.594;-117.718;2024-02-04T10:30:07;100210.25;;;10.82;100.00
16525;BME280;8375;33.594;-117.718;2024-02-04T10:32:35;100205.31;;;10.79;100.00
16525;BME280;8375;33.594;-117.718;2024-02-04T10:35:05;100207.44;;;10.62;100.00
16525;BME280;8375;33.594;-117.718;2024-02-04T10:37:33;100197.00;;;10.39;100.00
16525;BME280;8375;33.594;-117.718;2024-02-04T10:40:02;100195.56;;;10.35;100.00
16525;BME280;8375;33.594;-117.718;2024-02-04T10:42:31;100196.53;;;10.46;100.00
16525;BME280;8375;33.594;-117.718;2024-02-04T10:45:00;100198.44;;;10.55;100.00
16525;BME280;8375;33.594;-117.718;2024-02-04T10:47:33;100199.84;;;10.59;100.00
16525;BME280;8375;33.594;-117.718;2024-02-04T10:50:06;100199.13;;;10.57;100.00
16525;BME280;8375;33.594;-117.718;2024-02-04T10:52:36;100200.69;;;10.60;100.00
16525;BME280;8375;33.594;-117.718;2024-02-04T10:55:09;100205.97;;;10.58;100.00
16525;BME280;8375;33.594;-117.718;2024-02-04T10:57:39;100216.50;;;10.56;100.00
16525;BME280;8375;33.594;-117.718;2024-02-04T11:00:09;100224.38;;;10.55;100.00
16525;BME280;8375;33.594;-117.718;2024-02-04T11:02:40;100214.94;;;10.54;100.00
16525;BME280;8375;33.594;-117.718;2024-02-04T11:05:13;100219.56;;;10.50;100.00
16525;BME280;8375;33.594;-117.718;2024-02-04T11:07:43;100220.50;;;10.49;100.00
16525;BME280;8375;33.594;-117.718;2024-02-04T11:10:12;100215.66;;;10.45;100.00
16525;BME280;8375;33.594;-117.718;2024-02-04T11:12:44;100218.38;;;10.43;100.00
16525;BME280;8375;33.594;-117.718;2024-02-04T11:15:15;100214.94;;;10.42;100.00
16525;BME280;8375;33.594;-117.718;2024-02-04T11:18:15;100203.34;;;10.35;100.00
16525;BME280;8375;33.594;-117.718;2024-02-04T11:21:08;100202.63;;;10.33;100.00
16525;BME280;8375;33.594;-117.718;2024-02-04T11:23:51;100211.97;;;10.36;100.00
16525;BME280;8375;33.594;-117.718;2024-02-04T11:26:22;100213.84;;;10.34;100.00
16525;BME280;8375;33.594;-117.718;2024-02-04T11:28:52;100211.38;;;10.32;100.00
16525;BME280;8375;33.594;-117.718;2024-02-04T11:31:20;100214.91;;;10.31;100.00
16525;BME280;8375;33.594;-117.718;2024-02-04T11:33:52;100228.81;;;10.30;100.00
16525;BME280;8375;33.594;-117.718;2024-02-04T11:36:25;100232.25;;;10.31;100.00
16525;BME280;8375;33.594;-117.718;2024-02-04T11:38:54;100221.16;;;10.28;100.00
16525;BME280;8375;33.594;-117.718;2024-02-04T11:41:23;100218.44;;;10.30;100.00
16525;BME280;8375;33.594;-117.718;2024-02-04T11:43:53;100220.31;;;10.28;100.00
16525;BME280;8375;33.594;-117.718;2024-02-04T11:46:28;100215.13;;;10.28;100.00
16525;BME280;8375;33.594;-117.718;2024-02-04T11:49:01;100210.78;;;10.28;100.00
16525;BME280;8375;33.594;-117.718;2024-02-04T11:54:04;100206.53;;;10.27;100.00
16525;BME280;8375;33.594;-117.718;2024-02-04T11:56:33;100210.78;;;10.28;100.00
16525;BME280;8375;33.594;-117.718;2024-02-04T11:59:03;100211.72;;;10.27;100.00
16525;BME280;8375;33.594;-117.718;2024-02-04T12:01:33;100197.19;;;10.25;100.00
16525;BME280;8375;33.594;-117.718;2024-02-04T12:04:11;100201.59;;;10.24;100.00
16525;BME280;8375;33.594;-117.718;2024-02-04T12:06:41;100199.94;;;10.23;100.00
16525;BME280;8375;33.594;-117.718;2024-02-04T12:09:10;100197.44;;;10.22;100.00
16525;BME280;8375;33.594;-117.718;2024-02-04T12:11:40;100204.50;;;10.20;100.00
16525;BME280;8375;33.594;-117.718;2024-02-04T12:14:09;100198.38;;;10.21;100.00
16525;BME280;8375;33.594;-117.718;2024-02-04T12:16:38;100192.47;;;10.19;100.00
16525;BME280;8375;33.594;-117.718;2024-02-04T12:19:07;100197.78;;;10.17;100.00
16525;BME280;8375;33.594;-117.718;2024-02-04T12:21:37;100207.22;;;10.18;100.00
16525;BME280;8375;33.594;-117.718;2024-02-04T12:24:06;100203.09;;;10.16;100.00
16525;BME280;8375;33.594;-117.718;2024-02-04T12:26:35;100194.81;;;10.10;100.00
16525;BME280;8375;33.594;-117.718;2024-02-04T12:29:04;100205.31;;;10.09;100.00
16525;BME280;8375;33.594;-117.718;2024-02-04T12:31:33;100196.94;;;10.05;100.00
16525;BME280;8375;33.594;-117.718;2024-02-04T12:34:02;100195.28;;;10.04;100.00
16525;BME280;8375;33.594;-117.718;2024-02-04T12:36:31;100196.44;;;10.00;100.00
16525;BME280;8375;33.594;-117.718;2024-02-04T12:39:02;100198.56;;;9.95;100.00
16525;BME280;8375;33.594;-117.718;2024-02-04T12:41:34;100206.56;;;9.92;100.00
16525;BME280;8375;33.594;-117.718;2024-02-04T12:44:02;100212.81;;;9.89;100.00
16525;BME280;8375;33.594;-117.718;2024-02-04T12:46:31;100205.50;;;9.83;100.00
16525;BME280;8375;33.594;-117.718;2024-02-04T12:49:00;100208.41;;;9.78;100.00
16525;BME280;8375;33.594;-117.718;2024-02-04T12:51:29;100202.47;;;9.65;100.00
16525;BME280;8375;33.594;-117.718;2024-02-04T12:54:10;100209.66;;;9.61;100.00
16525;BME280;8375;33.594;-117.718;2024-02-04T12:56:44;100214.22;;;9.58;100.00
16525;BME280;8375;33.594;-117.718;2024-02-04T12:59:23;100207.59;;;9.53;100.00
16525;BME280;8375;33.594;-117.718;2024-02-04T13:01:57;100210.78;;;9.46;100.00
16525;BME280;8375;33.594;-117.718;2024-02-04T13:04:32;100214.53;;;9.42;100.00
16525;BME280;8375;33.594;-117.718;2024-02-04T13:07:01;100214.03;;;9.36;100.00
16525;BME280;8375;33.594;-117.718;2024-02-04T13:09:32;100202.31;;;9.31;100.00